createdAt,value
2023-04-09T00:00:41.451Z,11.94
2023-04-09T00:03:08.268Z,11.84
2023-04-09T00:05:41.338Z,11.90
2023-04-09T00:08:08.083Z,11.89
2023-04-09T00:10:34.899Z,11.96
2023-04-09T00:13:01.465Z,12.01
2023-04-09T00:15:31.063Z,12.01
2023-04-09T00:17:58.651Z,12.02
2023-04-09T00:20:25.368Z,11.97
2023-04-09T00:22:52.252Z,11.97
2023-04-09T00:25:19.979Z,12.01
2023-04-09T00:27:46.959Z,11.93
2023-04-09T00:30:13.661Z,11.89
2023-04-09T00:32:40.355Z,12.00
2023-04-09T00:35:07.177Z,12.03
2023-04-09T00:37:33.953Z,12.02
2023-04-09T00:40:00.895Z,12.03
2023-04-09T00:42:27.424Z,12.03
2023-04-09T00:44:53.964Z,12.03
2023-04-09T00:47:20.693Z,12.05
2023-04-09T00:49:47.323Z,12.05
2023-04-09T00:52:13.933Z,11.98
2023-04-09T00:54:40.620Z,12.00
2023-04-09T00:57:07.236Z,11.95
2023-04-09T00:59:33.875Z,11.93
2023-04-09T01:02:00.624Z,11.97
2023-04-09T01:04:27.276Z,11.91
2023-04-09T01:07:04.687Z,11.95
2023-04-09T01:09:36.436Z,11.72
2023-04-09T01:12:16.067Z,11.92
2023-04-09T01:15:11.257Z,12.00
2023-04-09T01:18:30.132Z,12.10
2023-04-09T01:21:06.019Z,12.05
2023-04-09T01:24:01.345Z,12.11
2023-04-09T01:26:57.031Z,12.09
2023-04-09T01:29:31.420Z,12.08
2023-04-09T01:31:59.288Z,12.05
2023-04-09T01:34:27.053Z,12.02
2023-04-09T01:36:56.893Z,12.02
2023-04-09T01:39:24.030Z,12.02
2023-04-09T01:41:51.454Z,12.06
2023-04-09T01:44:19.691Z,11.95
2023-04-09T01:46:48.253Z,12.01
2023-04-09T01:49:15.949Z,12.07
2023-04-09T01:51:43.102Z,12.04
2023-04-09T01:54:09.720Z,12.03
2023-04-09T01:56:47.624Z,11.93
2023-04-09T01:59:15.624Z,12.04
2023-04-09T02:01:47.386Z,12.02
2023-04-09T02:04:23.856Z,12.06
2023-04-09T02:07:10.094Z,11.93
2023-04-09T02:09:39.255Z,11.94
2023-04-09T02:12:09.629Z,11.94
2023-04-09T02:14:38.831Z,11.97
2023-04-09T02:17:05.808Z,11.96
2023-04-09T02:19:43.313Z,11.99
2023-04-09T02:22:10.758Z,11.92
2023-04-09T02:24:37.606Z,11.86
2023-04-09T02:27:04.789Z,11.69
2023-04-09T02:29:31.534Z,11.76
2023-04-09T02:31:58.211Z,11.81
2023-04-09T02:34:25.412Z,11.87
2023-04-09T02:36:52.113Z,11.90
2023-04-09T02:39:18.840Z,11.89
2023-04-09T02:41:45.454Z,11.84
2023-04-09T02:44:11.982Z,11.87
2023-04-09T02:46:39.652Z,11.93
2023-04-09T02:49:06.221Z,11.93
2023-04-09T02:51:35.293Z,11.85
2023-04-09T02:54:02.189Z,11.82
2023-04-09T02:56:28.914Z,11.79
2023-04-09T02:58:55.510Z,11.83
2023-04-09T03:01:22.243Z,11.80
2023-04-09T03:03:49.115Z,11.85
2023-04-09T03:06:15.879Z,11.83
2023-04-09T03:08:42.407Z,11.74
2023-04-09T03:11:08.926Z,11.63
2023-04-09T03:13:35.565Z,11.46
2023-04-09T03:16:02.206Z,11.36
2023-04-09T03:18:28.846Z,11.52
2023-04-09T03:20:55.456Z,11.58
2023-04-09T03:23:22.130Z,11.71
2023-04-09T03:25:49.582Z,11.73
2023-04-09T03:28:17.567Z,11.68
2023-04-09T03:30:51.240Z,11.58
2023-04-09T03:33:19.494Z,11.73
2023-04-09T03:35:50.737Z,11.78
2023-04-09T03:38:23.171Z,11.72
2023-04-09T03:40:50.399Z,11.71
2023-04-09T03:43:16.976Z,11.73
2023-04-09T03:45:48.981Z,11.73
2023-04-09T03:48:22.602Z,11.70
2023-04-09T03:50:50.338Z,11.74
2023-04-09T03:53:24.047Z,11.70
2023-04-09T03:55:50.856Z,11.62
2023-04-09T03:58:23.295Z,11.57
2023-04-09T04:00:50.106Z,11.54
2023-04-09T04:03:31.824Z,11.33
2023-04-09T04:06:19.795Z,11.29
2023-04-09T04:08:54.725Z,11.14
2023-04-09T04:11:26.753Z,11.15
2023-04-09T04:13:55.952Z,11.15
2023-04-09T04:16:23.841Z,11.01
2023-04-09T04:18:51.425Z,10.90
2023-04-09T04:21:18.361Z,10.87
2023-04-09T04:23:50.180Z,10.74
2023-04-09T04:26:20.759Z,10.76
2023-04-09T04:28:47.306Z,10.62
2023-04-09T04:31:25.105Z,10.55
2023-04-09T04:33:52.471Z,10.54
2023-04-09T04:36:19.236Z,10.48
2023-04-09T04:38:48.435Z,10.46
2023-04-09T04:41:25.724Z,10.34
2023-04-09T04:44:02.857Z,10.32
2023-04-09T04:46:29.477Z,10.28
2023-04-09T04:48:56.050Z,10.20
2023-04-09T04:51:22.876Z,9.88
2023-04-09T04:54:00.985Z,10.05
2023-04-09T04:56:27.985Z,10.20
2023-04-09T04:59:02.954Z,10.21
2023-04-09T05:01:37.268Z,10.22
2023-04-09T05:04:08.048Z,10.03
2023-04-09T05:06:36.832Z,10.13
2023-04-09T05:09:07.640Z,10.14
2023-04-09T05:11:41.409Z,10.38
2023-04-09T05:14:14.010Z,10.54
2023-04-09T05:16:40.838Z,10.66
2023-04-09T05:19:07.680Z,10.83
2023-04-09T05:21:34.249Z,10.95
2023-04-09T05:24:02.379Z,11.09
2023-04-09T05:26:31.838Z,11.10
2023-04-09T05:28:58.807Z,11.10
2023-04-09T05:31:26.151Z,11.09
2023-04-09T05:34:06.471Z,11.09
2023-04-09T05:36:39.730Z,11.19
2023-04-09T05:39:06.283Z,11.19
2023-04-09T05:41:33.495Z,11.23
2023-04-09T05:44:22.135Z,11.30
2023-04-09T05:46:50.930Z,11.38
2023-04-09T05:49:22.170Z,11.51
2023-04-09T05:51:51.892Z,11.54
2023-04-09T05:54:24.373Z,11.64
2023-04-09T05:56:52.374Z,11.75
2023-04-09T05:59:19.473Z,11.82
2023-04-09T06:01:46.191Z,11.94
2023-04-09T06:04:12.872Z,12.09
2023-04-09T06:06:39.596Z,12.08
2023-04-09T06:09:06.163Z,12.19
2023-04-09T06:11:33.425Z,12.31
2023-04-09T06:14:00.386Z,12.41
2023-04-09T06:16:27.182Z,12.42
2023-04-09T06:18:54.526Z,12.52
2023-04-09T06:21:21.090Z,12.57
2023-04-09T06:23:47.675Z,12.74
2023-04-09T06:26:14.277Z,12.84
2023-04-09T06:28:40.903Z,12.91
2023-04-09T06:31:07.436Z,13.00
2023-04-09T06:33:33.992Z,13.18
2023-04-09T06:36:00.693Z,13.07
2023-04-09T06:38:27.253Z,13.21
2023-04-09T06:40:56.839Z,13.31
2023-04-09T06:43:23.448Z,13.35
2023-04-09T06:45:52.020Z,13.44
2023-04-09T06:48:18.564Z,13.52
2023-04-09T06:50:45.541Z,13.58
2023-04-09T06:53:12.198Z,13.69
2023-04-09T06:55:38.725Z,13.82
2023-04-09T06:58:05.680Z,13.87
2023-04-09T07:00:32.312Z,13.87
2023-04-09T07:02:59.217Z,13.89
2023-04-09T07:05:26.250Z,13.96
2023-04-09T07:07:52.838Z,14.06
2023-04-09T07:10:19.422Z,14.07
2023-04-09T07:12:45.907Z,14.21
2023-04-09T07:15:12.522Z,14.37
2023-04-09T07:17:39.161Z,14.10
2023-04-09T07:20:06.205Z,14.42
2023-04-09T07:22:32.730Z,14.65
2023-04-09T07:24:59.554Z,14.75
2023-04-09T07:27:27.778Z,14.56
2023-04-09T07:29:56.188Z,14.71
2023-04-09T07:32:23.566Z,14.87
2023-04-09T07:34:54.258Z,14.75
2023-04-09T07:37:21.073Z,15.05
2023-04-09T07:39:48.008Z,14.82
2023-04-09T07:42:14.589Z,15.10
2023-04-09T07:44:41.122Z,14.90
2023-04-09T07:47:08.292Z,15.24
2023-04-09T07:49:38.402Z,15.40
2023-04-09T07:52:06.619Z,15.37
2023-04-09T07:54:34.116Z,15.42
2023-04-09T07:57:04.092Z,15.54
2023-04-09T07:59:31.640Z,15.52
2023-04-09T08:01:58.892Z,15.60
2023-04-09T08:04:25.736Z,15.54
2023-04-09T08:06:53.546Z,15.45
2023-04-09T08:09:21.216Z,15.01
2023-04-09T08:11:48.418Z,15.55
2023-04-09T08:14:16.137Z,15.90
2023-04-09T08:16:47.646Z,16.09
2023-04-09T08:19:16.257Z,16.23
2023-04-09T08:21:43.807Z,16.20
2023-04-09T08:24:11.845Z,16.41
2023-04-09T08:26:39.932Z,16.38
2023-04-09T08:29:07.339Z,16.88
2023-04-09T08:31:34.742Z,16.80
2023-04-09T08:34:01.305Z,17.18
2023-04-09T08:36:27.973Z,16.81
2023-04-09T08:38:56.498Z,17.06
2023-04-09T08:41:25.409Z,17.71
2023-04-09T08:43:58.439Z,17.78
2023-04-09T08:46:26.724Z,17.82
2023-04-09T08:48:53.645Z,17.34
2023-04-09T08:51:22.249Z,17.65
2023-04-09T08:54:04.469Z,17.91
2023-04-09T08:56:31.954Z,17.68
2023-04-09T08:58:58.650Z,17.60
2023-04-09T09:01:33.203Z,17.63
2023-04-09T09:04:05.451Z,17.26
2023-04-09T09:06:37.478Z,17.48
2023-04-09T09:09:11.956Z,17.69
2023-04-09T09:11:43.650Z,17.97
2023-04-09T09:14:11.294Z,17.56
2023-04-09T09:17:05.029Z,17.92
2023-04-09T09:19:37.146Z,18.34
2023-04-09T09:22:07.889Z,18.85
2023-04-09T09:24:34.901Z,18.84
2023-04-09T09:27:02.458Z,18.86
2023-04-09T09:29:29.308Z,18.38
2023-04-09T09:31:56.604Z,18.68
2023-04-09T09:34:24.545Z,18.89
2023-04-09T09:36:51.087Z,19.01
2023-04-09T09:39:17.837Z,19.16
2023-04-09T09:41:46.035Z,19.37
2023-04-09T09:44:29.939Z,18.28
2023-04-09T09:46:57.493Z,18.62
2023-04-09T09:49:24.052Z,18.69
2023-04-09T09:51:52.019Z,18.30
2023-04-09T09:54:23.315Z,18.42
2023-04-09T09:56:52.833Z,18.16
2023-04-09T09:59:29.627Z,18.55
2023-04-09T10:02:04.404Z,18.53
2023-04-09T10:04:35.740Z,18.37
2023-04-09T10:07:05.752Z,18.85
2023-04-09T10:09:35.461Z,17.98
2023-04-09T10:12:04.880Z,18.14
2023-04-09T10:14:31.559Z,18.79
2023-04-09T10:16:58.337Z,19.40
2023-04-09T10:19:25.169Z,19.36
2023-04-09T10:22:01.858Z,19.24
2023-04-09T10:24:28.401Z,19.58
2023-04-09T10:26:55.564Z,20.11
2023-04-09T10:29:29.108Z,19.26
2023-04-09T10:32:07.864Z,20.37
2023-04-09T10:34:43.388Z,20.43
2023-04-09T10:37:14.859Z,20.39
2023-04-09T10:39:45.583Z,20.36
2023-04-09T10:42:16.004Z,20.55
2023-04-09T10:44:42.759Z,20.23
2023-04-09T10:47:10.564Z,20.19
2023-04-09T10:49:38.205Z,19.97
2023-04-09T10:52:07.111Z,20.30
2023-04-09T10:54:34.940Z,21.29
2023-04-09T10:57:07.502Z,21.90
2023-04-09T10:59:35.316Z,20.64
2023-04-09T11:02:02.345Z,21.25
2023-04-09T11:04:52.803Z,21.15
2023-04-09T11:07:22.207Z,21.31
2023-04-09T11:09:48.833Z,20.50
2023-04-09T11:12:15.366Z,20.52
2023-04-09T11:14:41.872Z,21.06
2023-04-09T11:17:08.391Z,20.73
2023-04-09T11:19:35.297Z,20.73
2023-04-09T11:22:06.484Z,22.47
2023-04-09T11:24:43.403Z,24.07
2023-04-09T11:27:10.105Z,23.35
2023-04-09T11:29:36.684Z,22.52
2023-04-09T11:32:05.302Z,21.32
2023-04-09T11:34:32.526Z,22.18
2023-04-09T11:36:59.843Z,21.94
2023-04-09T11:39:26.489Z,21.49
2023-04-09T11:41:53.249Z,21.48
2023-04-09T11:44:21.581Z,21.33
2023-04-09T11:46:50.120Z,21.01
2023-04-09T11:49:17.286Z,20.42
2023-04-09T11:51:43.924Z,20.35
2023-04-09T11:54:12.098Z,20.23
2023-04-09T11:56:38.635Z,19.69
2023-04-09T11:59:05.500Z,20.00
2023-04-09T12:01:33.370Z,19.86
2023-04-09T12:04:00.899Z,19.61
2023-04-09T12:06:28.482Z,19.56
2023-04-09T12:08:59.269Z,19.39
2023-04-09T12:11:31.219Z,19.31
2023-04-09T12:14:04.662Z,19.30
2023-04-09T12:16:32.893Z,18.85
2023-04-09T12:19:10.322Z,19.03
2023-04-09T12:21:49.218Z,17.84
2023-04-09T12:24:20.182Z,18.24
2023-04-09T12:26:47.504Z,18.38
2023-04-09T12:29:18.995Z,18.13
2023-04-09T12:31:45.986Z,18.96
2023-04-09T12:34:13.214Z,19.66
2023-04-09T12:36:41.592Z,20.34
2023-04-09T12:39:10.966Z,20.61
2023-04-09T12:41:37.661Z,20.77
2023-04-09T12:44:05.049Z,21.87
2023-04-09T12:46:32.410Z,23.14
2023-04-09T12:48:59.286Z,23.28
2023-04-09T12:51:25.835Z,23.11
2023-04-09T12:53:52.637Z,23.28
2023-04-09T12:56:19.653Z,22.75
2023-04-09T12:58:46.198Z,21.97
2023-04-09T13:01:12.907Z,20.90
2023-04-09T13:03:41.142Z,21.41
2023-04-09T13:06:08.424Z,22.69
2023-04-09T13:08:34.969Z,23.76
2023-04-09T13:11:01.681Z,24.12
2023-04-09T13:13:28.669Z,26.92
2023-04-09T13:15:55.437Z,27.69
2023-04-09T13:18:21.971Z,27.48
2023-04-09T13:20:48.548Z,27.64
2023-04-09T13:23:15.446Z,25.67
2023-04-09T13:25:42.008Z,23.07
2023-04-09T13:28:08.549Z,23.46
2023-04-09T13:30:35.509Z,22.97
2023-04-09T13:33:02.375Z,21.68
2023-04-09T13:35:30.614Z,20.81
2023-04-09T13:37:57.191Z,20.40
2023-04-09T13:40:23.887Z,20.30
2023-04-09T13:42:50.389Z,20.34
2023-04-09T13:45:17.811Z,20.28
2023-04-09T13:47:44.372Z,19.73
2023-04-09T13:50:12.960Z,19.37
2023-04-09T13:52:39.510Z,19.33
2023-04-09T13:55:07.508Z,18.69
2023-04-09T13:57:34.053Z,18.47
2023-04-09T14:00:04.158Z,18.61
2023-04-09T14:02:32.030Z,19.01
2023-04-09T14:04:58.710Z,19.22
2023-04-09T14:07:25.365Z,19.35
2023-04-09T14:09:51.917Z,19.49
2023-04-09T14:12:19.298Z,20.20
2023-04-09T14:14:46.060Z,22.25
2023-04-09T14:17:12.585Z,23.20
2023-04-09T14:19:39.172Z,23.60
2023-04-09T14:22:07.227Z,23.47
2023-04-09T14:24:39.575Z,23.83
2023-04-09T14:27:07.555Z,23.53
2023-04-09T14:29:34.461Z,22.66
2023-04-09T14:32:01.200Z,22.28
2023-04-09T14:34:31.126Z,21.24
2023-04-09T14:36:57.955Z,20.93
2023-04-09T14:39:24.726Z,21.28
2023-04-09T14:41:51.838Z,21.91
2023-04-09T14:44:18.397Z,23.34
2023-04-09T14:46:44.996Z,24.39
2023-04-09T14:49:11.601Z,26.37
2023-04-09T14:51:38.243Z,26.00
2023-04-09T14:54:04.845Z,25.73
2023-04-09T14:56:31.349Z,24.12
2023-04-09T14:58:57.890Z,22.72
2023-04-09T15:01:26.044Z,23.72
2023-04-09T15:03:52.802Z,24.63
2023-04-09T15:06:19.492Z,25.70
2023-04-09T15:08:46.096Z,24.19
2023-04-09T15:11:17.038Z,23.05
2023-04-09T15:13:43.620Z,22.08
2023-04-09T15:16:10.829Z,20.96
2023-04-09T15:18:37.483Z,20.32
2023-04-09T15:21:04.191Z,20.69
2023-04-09T15:23:30.986Z,20.58
2023-04-09T15:25:57.540Z,19.97
2023-04-09T15:28:24.059Z,20.20
2023-04-09T15:30:50.876Z,20.52
2023-04-09T15:33:17.386Z,20.19
2023-04-09T15:35:43.923Z,20.26
2023-04-09T15:38:10.532Z,20.28
2023-04-09T15:40:37.024Z,20.34
2023-04-09T15:43:03.552Z,20.44
2023-04-09T15:45:30.269Z,20.52
2023-04-09T15:47:56.859Z,19.40
2023-04-09T15:50:23.550Z,19.81
2023-04-09T15:52:50.632Z,19.61
2023-04-09T15:55:17.180Z,19.20
2023-04-09T15:57:46.746Z,18.75
2023-04-09T16:00:13.447Z,18.33
2023-04-09T16:02:40.768Z,18.15
2023-04-09T16:05:07.662Z,17.80
2023-04-09T16:07:34.295Z,17.44
2023-04-09T16:10:01.714Z,17.68
2023-04-09T16:12:28.279Z,17.85
2023-04-09T16:14:54.811Z,17.57
2023-04-09T16:17:21.333Z,17.62
2023-04-09T16:19:47.906Z,17.52
2023-04-09T16:22:14.460Z,17.65
2023-04-09T16:24:40.993Z,17.54
2023-04-09T16:27:07.525Z,17.51
2023-04-09T16:29:34.246Z,17.69
2023-04-09T16:32:01.139Z,17.52
2023-04-09T16:34:27.777Z,17.46
2023-04-09T16:36:54.305Z,17.51
2023-04-09T16:39:21.020Z,17.44
2023-04-09T16:41:47.595Z,17.46
2023-04-09T16:44:14.082Z,17.51
2023-04-09T16:46:40.707Z,17.48
2023-04-09T16:49:07.230Z,17.40
2023-04-09T16:51:33.874Z,17.42
2023-04-09T16:54:00.819Z,17.48
2023-04-09T16:56:27.510Z,17.49
2023-04-09T16:58:55.206Z,17.40
2023-04-09T17:01:22.056Z,17.52
2023-04-09T17:03:51.803Z,17.52
2023-04-09T17:06:18.436Z,17.62
2023-04-09T17:08:45.625Z,17.50
2023-04-09T17:11:16.138Z,17.57
2023-04-09T17:13:42.753Z,17.66
2023-04-09T17:16:11.312Z,17.26
2023-04-09T17:18:38.041Z,17.56
2023-04-09T17:21:04.932Z,17.25
2023-04-09T17:23:31.511Z,16.89
2023-04-09T17:25:59.997Z,16.92
2023-04-09T17:28:26.546Z,16.95
2023-04-09T17:30:53.124Z,16.78
2023-04-09T17:33:19.711Z,16.81
2023-04-09T17:35:46.342Z,16.73
2023-04-09T17:38:17.145Z,16.63
2023-04-09T17:40:43.726Z,16.60
2023-04-09T17:43:10.303Z,16.43
2023-04-09T17:45:36.878Z,16.33
2023-04-09T17:48:03.580Z,16.23
2023-04-09T17:50:30.149Z,16.17
2023-04-09T17:52:57.221Z,16.09
2023-04-09T17:55:23.862Z,16.04
2023-04-09T17:57:50.485Z,15.91
2023-04-09T18:00:17.156Z,15.85
2023-04-09T18:02:46.932Z,15.79
2023-04-09T18:05:13.821Z,15.71
2023-04-09T18:07:40.467Z,15.65
2023-04-09T18:10:07.555Z,15.58
2023-04-09T18:12:34.139Z,15.44
2023-04-09T18:15:00.650Z,15.33
2023-04-09T18:17:27.373Z,15.32
2023-04-09T18:19:54.886Z,15.23
2023-04-09T18:22:21.769Z,15.16
2023-04-09T18:24:49.478Z,15.15
2023-04-09T18:27:17.654Z,15.06
2023-04-09T18:29:44.250Z,15.02
2023-04-09T18:32:10.799Z,14.95
2023-04-09T18:34:38.088Z,14.85
2023-04-09T18:37:04.663Z,14.83
2023-04-09T18:39:31.658Z,14.74
2023-04-09T18:41:58.415Z,14.66
2023-04-09T18:44:24.954Z,14.60
2023-04-09T18:46:52.100Z,14.60
2023-04-09T18:49:18.705Z,14.56
2023-04-09T18:51:45.264Z,14.47
2023-04-09T18:54:11.796Z,14.35
2023-04-09T18:56:38.359Z,14.29
2023-04-09T18:59:04.896Z,14.19
2023-04-09T19:01:31.703Z,14.11
2023-04-09T19:03:58.382Z,14.03
2023-04-09T19:06:25.763Z,13.92
2023-04-09T19:08:58.139Z,13.91
2023-04-09T19:11:26.020Z,13.81
2023-04-09T19:13:52.697Z,13.80
2023-04-09T19:16:20.648Z,13.68
2023-04-09T19:18:47.680Z,13.63
2023-04-09T19:21:14.285Z,13.64
2023-04-09T19:23:41.193Z,13.61
2023-04-09T19:26:07.734Z,13.53
2023-04-09T19:28:34.472Z,13.42
2023-04-09T19:31:03.431Z,13.29
2023-04-09T19:33:30.561Z,13.32
2023-04-09T19:35:57.189Z,13.27
2023-04-09T19:38:23.801Z,13.28
2023-04-09T19:40:50.325Z,13.18
2023-04-09T19:43:16.884Z,13.07
2023-04-09T19:45:43.546Z,12.99
2023-04-09T19:48:10.522Z,12.96
2023-04-09T19:50:38.408Z,13.00
2023-04-09T19:53:05.936Z,12.91
2023-04-09T19:55:33.451Z,12.88
2023-04-09T19:58:00.106Z,12.93
2023-04-09T20:00:28.112Z,12.80
2023-04-09T20:02:55.289Z,12.82
2023-04-09T20:05:22.444Z,12.82
2023-04-09T20:07:50.245Z,12.74
2023-04-09T20:10:17.151Z,12.65
2023-04-09T20:12:47.425Z,12.61
2023-04-09T20:15:14.355Z,12.56
2023-04-09T20:17:41.779Z,12.46
2023-04-09T20:20:08.858Z,12.43
2023-04-09T20:22:35.496Z,12.37
2023-04-09T20:25:02.170Z,12.36
2023-04-09T20:27:28.828Z,12.32
2023-04-09T20:29:55.383Z,12.22
2023-04-09T20:32:22.876Z,12.20
2023-04-09T20:34:49.628Z,12.18
2023-04-09T20:37:16.245Z,12.21
2023-04-09T20:39:42.800Z,12.17
2023-04-09T20:42:09.364Z,12.09
2023-04-09T20:44:36.138Z,12.02
2023-04-09T20:47:02.727Z,11.84
2023-04-09T20:49:29.403Z,11.95
2023-04-09T20:51:56.719Z,11.88
2023-04-09T20:54:23.299Z,11.90
2023-04-09T20:56:50.143Z,11.95
2023-04-09T20:59:17.190Z,11.92
2023-04-09T21:01:44.085Z,11.88
2023-04-09T21:04:11.287Z,11.77
2023-04-09T21:06:37.853Z,11.78
2023-04-09T21:09:04.370Z,11.72
2023-04-09T21:11:31.171Z,11.67
2023-04-09T21:13:58.221Z,11.63
2023-04-09T21:16:27.345Z,11.55
2023-04-09T21:18:54.246Z,11.55
2023-04-09T21:21:21.318Z,11.42
2023-04-09T21:23:47.844Z,11.38
2023-04-09T21:26:15.017Z,11.37
2023-04-09T21:28:41.613Z,11.25
2023-04-09T21:31:10.856Z,11.19
2023-04-09T21:33:39.029Z,11.18
2023-04-09T21:36:07.624Z,11.17
2023-04-09T21:38:34.471Z,11.07
2023-04-09T21:41:01.682Z,11.04
2023-04-09T21:43:29.184Z,10.95
2023-04-09T21:45:59.301Z,10.92
2023-04-09T21:48:26.696Z,11.07
2023-04-09T21:50:53.250Z,10.92
2023-04-09T21:53:19.907Z,10.90
2023-04-09T21:55:47.041Z,10.86
2023-04-09T21:58:13.643Z,10.86
2023-04-09T22:00:40.551Z,10.82
2023-04-09T22:03:07.416Z,10.84
2023-04-09T22:05:36.776Z,10.82
2023-04-09T22:08:03.324Z,10.71
2023-04-09T22:10:30.032Z,10.67
2023-04-09T22:12:56.653Z,10.69
2023-04-09T22:15:23.177Z,10.62
2023-04-09T22:17:49.741Z,10.62
2023-04-09T22:20:16.564Z,10.63
2023-04-09T22:22:43.260Z,10.54
2023-04-09T22:25:11.620Z,10.40
2023-04-09T22:27:38.339Z,10.47
2023-04-09T22:30:06.286Z,10.42
2023-04-09T22:32:33.422Z,10.38
2023-04-09T22:35:00.195Z,10.38
2023-04-09T22:37:27.642Z,10.34
2023-04-09T22:39:54.200Z,10.26
2023-04-09T22:42:20.772Z,10.22
2023-04-09T22:44:47.343Z,10.23
2023-04-09T22:47:13.909Z,10.15
2023-04-09T22:49:40.463Z,10.21
2023-04-09T22:52:08.298Z,10.14
2023-04-09T22:54:34.909Z,10.09
2023-04-09T22:57:01.898Z,10.17
2023-04-09T22:59:37.233Z,10.15
2023-04-09T23:02:06.634Z,9.97
2023-04-09T23:04:34.710Z,10.02
2023-04-09T23:07:02.161Z,9.98
2023-04-09T23:09:30.228Z,9.95
2023-04-09T23:11:57.073Z,9.98
2023-04-09T23:14:23.601Z,9.87
2023-04-09T23:16:50.341Z,9.80
2023-04-09T23:19:16.864Z,9.88
2023-04-09T23:21:43.487Z,9.79
2023-04-09T23:24:10.278Z,9.70
2023-04-09T23:26:36.781Z,9.67
2023-04-09T23:29:03.355Z,9.74
2023-04-09T23:31:29.908Z,9.70
2023-04-09T23:33:56.649Z,9.65
2023-04-09T23:36:24.227Z,9.61
2023-04-09T23:38:50.863Z,9.51
2023-04-09T23:41:17.438Z,9.56
2023-04-09T23:43:44.182Z,9.59
2023-04-09T23:46:10.821Z,9.44
2023-04-09T23:48:37.380Z,9.47
2023-04-09T23:51:04.104Z,9.47
2023-04-09T23:53:30.690Z,9.44
2023-04-09T23:55:57.192Z,9.41
2023-04-09T23:58:23.796Z,9.39
